createdAt,value
2022-07-30T00:03:45.025Z,98621.19
2022-07-30T00:08:52.577Z,98624.69
2022-07-30T00:13:57.586Z,98645.25
2022-07-30T00:19:02.614Z,98635.78
2022-07-30T00:24:11.278Z,98632.47
2022-07-30T00:29:16.429Z,98642.44
2022-07-30T00:34:21.583Z,98637.41
2022-07-30T00:39:30.665Z,98634.94
2022-07-30T00:44:35.860Z,98635.06
2022-07-30T00:49:46.338Z,98638.44
2022-07-30T00:54:54.021Z,98631.16
2022-07-30T00:59:59.307Z,98622.53
2022-07-30T01:05:04.142Z,98619.50
2022-07-30T01:10:14.039Z,98625.34
2022-07-30T01:15:22.588Z,98621.91
2022-07-30T01:20:32.865Z,98622.16
2022-07-30T01:25:55.712Z,98627.63
2022-07-30T01:31:01.918Z,98626.03
2022-07-30T01:36:11.710Z,98629.91
2022-07-30T01:41:22.299Z,98612.50
2022-07-30T01:46:28.495Z,98610.38
2022-07-30T01:51:37.358Z,98606.13
2022-07-30T01:56:47.433Z,98600.16
2022-07-30T02:01:52.478Z,98608.91
2022-07-30T02:07:04.337Z,98602.03
2022-07-30T02:12:32.828Z,98599.72
2022-07-30T02:17:53.346Z,98613.03
2022-07-30T02:23:03.721Z,98607.19
2022-07-30T02:28:14.406Z,98605.25
2022-07-30T02:33:23.928Z,98613.75
2022-07-30T02:38:32.935Z,98610.69
2022-07-30T02:43:40.796Z,98606.63
2022-07-30T02:48:49.141Z,98614.28
2022-07-30T02:53:56.474Z,98616.25
2022-07-30T02:59:06.102Z,98617.16
2022-07-30T03:04:12.132Z,98609.16
2022-07-30T03:09:19.098Z,98604.19
2022-07-30T03:14:27.237Z,98611.72
2022-07-30T03:19:35.881Z,98618.91
2022-07-30T03:24:43.783Z,98613.22
2022-07-30T03:29:55.362Z,98619.81
2022-07-30T03:35:06.194Z,98622.53
2022-07-30T03:40:13.835Z,98616.81
2022-07-30T03:45:23.211Z,98611.00
2022-07-30T03:50:31.126Z,98612.94
2022-07-30T03:55:36.752Z,98617.13
2022-07-30T04:01:22.448Z,98613.03
2022-07-30T04:06:28.289Z,98615.47
2022-07-30T04:11:41.631Z,98606.56
2022-07-30T04:17:04.365Z,98614.00
2022-07-30T04:22:12.663Z,98607.59
2022-07-30T04:27:19.065Z,98615.19
2022-07-30T04:32:26.677Z,98616.59
2022-07-30T04:38:02.757Z,98621.41
2022-07-30T04:43:08.074Z,98622.47
2022-07-30T04:48:18.364Z,98627.41
2022-07-30T04:53:51.309Z,98626.91
2022-07-30T04:58:59.348Z,98628.69
2022-07-30T05:04:10.764Z,98635.63
2022-07-30T05:09:17.957Z,98626.41
2022-07-30T05:14:23.153Z,98628.63
2022-07-30T05:19:30.957Z,98629.75
2022-07-30T05:24:35.868Z,98613.72
2022-07-30T05:29:40.830Z,98601.03
2022-07-30T05:34:55.150Z,98607.81
2022-07-30T05:40:03.144Z,98621.50
2022-07-30T05:45:47.316Z,98618.25
2022-07-30T05:50:54.861Z,98627.59
2022-07-30T05:56:01.234Z,98635.31
2022-07-30T06:01:36.170Z,98644.78
2022-07-30T06:06:52.133Z,98642.91
2022-07-30T06:11:57.505Z,98643.91
2022-07-30T06:17:03.374Z,98651.84
2022-07-30T06:22:27.887Z,98643.91
2022-07-30T06:27:39.578Z,98650.22
2022-07-30T06:32:48.713Z,98657.28
2022-07-30T06:38:07.458Z,98646.78
2022-07-30T06:43:25.823Z,98641.03
2022-07-30T06:48:46.950Z,98652.78
2022-07-30T06:53:54.507Z,98662.81
2022-07-30T06:59:20.803Z,98673.38
2022-07-30T07:04:32.583Z,98670.53
2022-07-30T07:09:44.662Z,98679.28
2022-07-30T07:15:09.924Z,98685.16
2022-07-30T07:20:16.250Z,98693.13
2022-07-30T07:25:29.993Z,98684.88
2022-07-30T07:30:35.320Z,98682.69
2022-07-30T07:35:49.390Z,98690.00
2022-07-30T07:41:07.707Z,98697.53
2022-07-30T07:46:16.542Z,98688.28
2022-07-30T07:51:47.066Z,98696.63
2022-07-30T07:56:59.532Z,98697.31
2022-07-30T08:02:16.675Z,98693.75
2022-07-30T08:07:35.039Z,98704.72
2022-07-30T08:12:51.735Z,98698.91
2022-07-30T08:18:16.042Z,98694.84
2022-07-30T08:23:33.110Z,98703.84
2022-07-30T08:28:43.196Z,98711.22
2022-07-30T08:33:48.345Z,98699.63
2022-07-30T08:38:53.975Z,98701.75
2022-07-30T08:44:03.860Z,98706.50
2022-07-30T08:49:11.386Z,98713.97
2022-07-30T08:54:23.880Z,98717.78
2022-07-30T08:59:59.044Z,98723.91
2022-07-30T09:04:57.864Z,98719.81
2022-07-30T09:10:06.285Z,98721.75
2022-07-30T09:15:17.918Z,98712.75
2022-07-30T09:20:24.225Z,98718.56
2022-07-30T09:25:38.384Z,98713.44
2022-07-30T09:31:04.957Z,98718.81
2022-07-30T09:36:35.031Z,98726.28
2022-07-30T09:42:04.788Z,98737.22
2022-07-30T09:47:12.610Z,98736.94
2022-07-30T09:52:30.928Z,98737.94
2022-07-30T09:57:37.495Z,98738.59
2022-07-30T10:03:00.601Z,98744.22
2022-07-30T10:08:46.190Z,98729.72
2022-07-30T10:13:53.245Z,98735.78
2022-07-30T10:19:03.630Z,98744.66
2022-07-30T10:24:33.002Z,98732.09
2022-07-30T10:30:03.533Z,98734.56
2022-07-30T10:35:12.492Z,98736.19
2022-07-30T10:40:40.957Z,98739.56
2022-07-30T10:45:56.052Z,98741.19
2022-07-30T10:51:04.183Z,98747.41
2022-07-30T10:56:25.618Z,98750.88
2022-07-30T11:02:14.946Z,98749.53
2022-07-30T11:07:34.558Z,98746.94
2022-07-30T11:12:55.953Z,98752.06
2022-07-30T11:18:13.107Z,98746.97
2022-07-30T11:23:40.773Z,98733.22
2022-07-30T11:28:49.479Z,98730.25
2022-07-30T11:34:17.234Z,98732.25
2022-07-30T11:39:22.248Z,98736.06
2022-07-30T11:44:39.486Z,98731.13
2022-07-30T11:49:49.013Z,98745.50
2022-07-30T11:54:56.310Z,98737.69
2022-07-30T12:00:01.609Z,98737.28
2022-07-30T12:05:10.653Z,98749.41
2022-07-30T12:10:26.807Z,98750.59
2022-07-30T12:15:34.185Z,98746.94
2022-07-30T12:20:42.455Z,98746.91
2022-07-30T12:25:47.792Z,98742.81
2022-07-30T12:30:57.046Z,98753.84
2022-07-30T12:36:04.525Z,98747.97
2022-07-30T12:41:09.400Z,98751.31
2022-07-30T12:46:16.466Z,98750.69
2022-07-30T12:51:25.317Z,98747.44
2022-07-30T12:56:33.685Z,98743.03
2022-07-30T13:01:42.520Z,98751.69
2022-07-30T13:07:07.224Z,98763.06
2022-07-30T13:12:15.336Z,98760.94
2022-07-30T13:17:21.437Z,98765.22
2022-07-30T13:22:29.559Z,98757.31
2022-07-30T13:27:34.843Z,98754.50
2022-07-30T13:32:39.715Z,98762.72
2022-07-30T13:37:47.279Z,98772.00
2022-07-30T13:42:54.556Z,98758.50
2022-07-30T13:48:00.123Z,98757.31
2022-07-30T13:53:08.815Z,98762.16
2022-07-30T13:58:13.870Z,98769.06
2022-07-30T14:03:18.917Z,98776.69
2022-07-30T14:08:28.678Z,98779.91
2022-07-30T14:13:35.965Z,98778.75
2022-07-30T14:18:40.921Z,98791.13
2022-07-30T14:23:49.065Z,98784.19
2022-07-30T14:28:54.005Z,98781.25
2022-07-30T14:33:58.954Z,98785.09
2022-07-30T14:39:07.612Z,98791.19
2022-07-30T14:44:13.914Z,98780.41
2022-07-30T14:49:22.622Z,98783.97
2022-07-30T14:54:31.457Z,98782.84
2022-07-30T14:59:36.475Z,98788.44
2022-07-30T15:04:41.515Z,98788.94
2022-07-30T15:09:49.021Z,98803.38
2022-07-30T15:14:54.019Z,98798.91
2022-07-30T15:19:59.094Z,98798.53
2022-07-30T15:25:07.437Z,98800.22
2022-07-30T15:30:14.063Z,98810.03
2022-07-30T15:35:19.003Z,98815.97
2022-07-30T15:40:26.615Z,98810.38
2022-07-30T15:45:31.640Z,98804.78
2022-07-30T15:50:56.483Z,98814.00
2022-07-30T15:56:04.662Z,98816.25
2022-07-30T16:01:09.691Z,98812.47
2022-07-30T16:06:14.757Z,98806.34
2022-07-30T16:11:22.289Z,98809.88
2022-07-30T16:16:27.384Z,98812.81
2022-07-30T16:21:32.256Z,98816.38
2022-07-30T16:26:40.137Z,98819.13
2022-07-30T16:31:45.041Z,98814.47
2022-07-30T16:36:50.207Z,98814.66
2022-07-30T16:41:57.789Z,98825.88
2022-07-30T16:47:03.254Z,98836.44
2022-07-30T16:52:08.610Z,98835.41
2022-07-30T16:57:16.692Z,98842.06
2022-07-30T17:02:21.648Z,98843.16
2022-07-30T17:07:26.564Z,98851.75
2022-07-30T17:12:34.127Z,98854.78
2022-07-30T17:17:39.018Z,98862.09
2022-07-30T17:22:44.021Z,98855.03
2022-07-30T17:27:51.992Z,98860.69
2022-07-30T17:32:57.336Z,98865.63
2022-07-30T17:38:02.294Z,98865.53
2022-07-30T17:43:11.656Z,98859.25
2022-07-30T17:48:19.382Z,98864.22
2022-07-30T17:53:24.441Z,98859.25
2022-07-30T17:58:34.348Z,98873.84
2022-07-30T18:03:39.165Z,98875.28
2022-07-30T18:08:50.240Z,98877.00
2022-07-30T18:13:57.774Z,98876.16
2022-07-30T18:19:03.450Z,98881.28
2022-07-30T18:24:09.405Z,98881.72
2022-07-30T18:29:21.787Z,98883.47
2022-07-30T18:34:26.743Z,98885.78
2022-07-30T18:39:31.866Z,98898.69
2022-07-30T18:44:41.972Z,98905.06
2022-07-30T18:49:48.756Z,98913.09
2022-07-30T18:54:53.707Z,98909.97
2022-07-30T19:00:01.560Z,98926.88
2022-07-30T19:05:08.125Z,98923.47
2022-07-30T19:10:14.461Z,98924.97
2022-07-30T19:15:22.125Z,98931.47
2022-07-30T19:20:27.413Z,98935.19
2022-07-30T19:25:33.924Z,98934.03
2022-07-30T19:30:42.212Z,98933.19
2022-07-30T19:35:47.374Z,98938.31
2022-07-30T19:40:52.606Z,98938.84
2022-07-30T19:46:00.106Z,98936.66
2022-07-30T19:51:05.140Z,98937.72
2022-07-30T19:56:20.873Z,98936.72
2022-07-30T20:06:56.104Z,98925.56
2022-07-30T20:12:03.811Z,98931.25
2022-07-30T20:17:12.798Z,98926.97
2022-07-30T20:22:20.001Z,98927.81
2022-07-30T20:32:55.904Z,98933.81
2022-07-30T20:38:03.887Z,98933.03
2022-07-30T20:43:12.686Z,98934.84
2022-07-30T20:48:25.408Z,98933.97
2022-07-30T20:53:33.419Z,98934.19
2022-07-30T20:58:41.758Z,98932.28
2022-07-30T21:03:56.637Z,98933.72
2022-07-30T21:09:02.366Z,98939.47
2022-07-30T21:14:08.714Z,98936.06
2022-07-30T21:19:18.526Z,98938.03
2022-07-30T21:24:24.664Z,98938.56
2022-07-30T21:29:29.735Z,98948.06
2022-07-30T21:34:41.921Z,98947.19
2022-07-30T21:39:47.231Z,98954.84
2022-07-30T21:44:52.171Z,98956.84
2022-07-30T21:50:00.103Z,98957.09
2022-07-30T21:55:07.320Z,98968.09
2022-07-30T22:00:21.933Z,98962.81
2022-07-30T22:05:38.762Z,98953.88
2022-07-30T22:10:45.618Z,98951.09
2022-07-30T22:15:51.145Z,98942.16
2022-07-30T22:20:58.948Z,98946.75
2022-07-30T22:26:03.900Z,98951.38
2022-07-30T22:31:14.156Z,98946.06
2022-07-30T22:36:24.670Z,98942.44
2022-07-30T22:41:30.253Z,98934.53
2022-07-30T22:46:37.780Z,98927.19
2022-07-30T22:52:01.086Z,98935.91
2022-07-30T22:57:10.801Z,98933.53
2022-07-30T23:02:16.156Z,98927.94
2022-07-30T23:07:29.173Z,98919.31
2022-07-30T23:12:15.623Z,98931.94
2022-07-30T23:12:19.636Z,98924.16
2022-07-30T23:12:44.874Z,98913.03
2022-07-30T23:17:50.729Z,98911.78
2022-07-30T23:22:58.346Z,98901.97
2022-07-30T23:28:04.179Z,98901.09
2022-07-30T23:33:09.137Z,98901.97
2022-07-30T23:38:16.982Z,98893.16
2022-07-30T23:43:21.965Z,98901.09
2022-07-30T23:48:28.260Z,98894.63
2022-07-30T23:53:36.865Z,98904.59
2022-07-30T23:58:42.498Z,98903.00
